Time,TemperatureF,DewpointF,PressureIn,WindDirection,WindDirectionDegrees,WindSpeedMPH,WindSpeedGustMPH,Humidity,HourlyPrecipIn,Conditions,Clouds,dailyrainin,SoftwareType,DateUTC
2013-04-26 00:00:00,36.2,28.7,30.37,NW,317,0.0,2.0,74,0.00,,,0.01,Wunderground v.1.15,2013-04-26 04:00:00,
2013-04-26 00:01:00,36.2,28.7,30.37,NW,317,0.0,2.0,74,0.00,,,0.01,Wunderground v.1.15,2013-04-26 04:01:00,
2013-04-26 00:03:00,36.1,28.6,30.37,NW,317,0.0,2.0,74,0.00,,,0.00,Wunderground v.1.15,2013-04-26 04:03:00,
2013-04-26 00:08:00,35.9,28.4,30.37,NW,317,0.0,2.0,74,0.00,,,0.00,Wunderground v.1.15,2013-04-26 04:08:00,
2013-04-26 00:09:00,35.8,28.3,30.37,NW,317,0.0,2.0,74,0.00,,,0.00,Wunderground v.1.15,2013-04-26 04:09:00,
2013-04-26 00:11:00,35.7,28.2,30.37,NW,317,0.0,2.0,74,0.00,,,0.00,Wunderground v.1.15,2013-04-26 04:11:00,
2013-04-26 00:16:00,35.3,27.8,30.37,NW,317,0.0,2.0,74,0.00,,,0.00,Wunderground v.1.15,2013-04-26 04:16:00,
2013-04-26 00:22:00,35.0,27.9,30.37,NW,317,0.0,2.0,75,0.00,,,0.00,Wunderground v.1.15,2013-04-26 04:22:00,
2013-04-26 00:27:00,34.5,27.4,30.37,NW,317,0.0,2.0,75,0.00,,,0.00,Wunderground v.1.15,2013-04-26 04:27:00,
2013-04-26 00:32:00,34.4,27.3,30.37,NW,317,0.0,2.0,75,0.00,,,0.00,Wunderground v.1.15,2013-04-26 04:32:00,
2013-04-26 00:37:00,34.1,27.3,30.37,NW,317,0.0,2.0,76,0.00,,,0.00,Wunderground v.1.15,2013-04-26 04:37:00,
2013-04-26 00:43:00,33.9,27.4,30.37,NW,317,0.0,2.0,77,0.00,,,0.00,Wunderground v.1.15,2013-04-26 04:43:00,
2013-04-26 00:48:00,33.7,27.3,30.37,NW,317,0.0,2.0,77,0.00,,,0.00,Wunderground v.1.15,2013-04-26 04:48:00,
2013-04-26 00:53:00,33.5,27.1,30.38,NW,317,0.0,2.0,77,0.00,,,0.00,Wunderground v.1.15,2013-04-26 04:53:00,
2013-04-26 00:59:00,33.3,27.2,30.38,NW,317,0.0,2.0,78,0.00,,,0.00,Wunderground v.1.15,2013-04-26 04:59:00,
2013-04-26 01:04:00,33.2,27.4,30.38,NW,317,0.0,2.0,79,0.00,,,0.00,Wunderground v.1.15,2013-04-26 05:04:00,
2013-04-26 01:09:00,33.2,27.4,30.38,NW,317,0.0,2.0,79,0.00,,,0.00,Wunderground v.1.15,2013-04-26 05:09:00,
2013-04-26 01:14:00,33.1,27.6,30.38,NW,317,0.0,2.0,80,0.00,,,0.00,Wunderground v.1.15,2013-04-26 05:14:00,
2013-04-26 01:19:00,33.0,27.5,30.38,NW,317,0.0,2.0,80,0.00,,,0.00,Wunderground v.1.15,2013-04-26 05:19:00,
2013-04-26 01:25:00,32.8,27.3,30.38,NW,317,0.0,2.0,80,0.00,,,0.00,Wunderground v.1.15,2013-04-26 05:25:00,
2013-04-26 01:30:00,32.7,27.5,30.38,NW,317,0.0,2.0,81,0.00,,,0.00,Wunderground v.1.15,2013-04-26 05:30:00,
2013-04-26 01:35:00,32.6,27.4,30.38,NW,317,0.0,2.0,81,0.00,,,0.00,Wunderground v.1.15,2013-04-26 05:35:00,
2013-04-26 01:40:00,32.5,27.3,30.38,NW,317,0.0,2.0,81,0.00,,,0.00,Wunderground v.1.15,2013-04-26 05:40:00,
2013-04-26 01:46:00,32.2,27.0,30.38,NW,317,0.0,2.0,81,0.00,,,0.00,Wunderground v.1.15,2013-04-26 05:46:00,
2013-04-26 01:52:00,32.0,26.8,30.38,NW,317,0.0,2.0,81,0.00,,,0.00,Wunderground v.1.15,2013-04-26 05:52:00,
2013-04-26 01:57:00,32.0,26.8,30.38,NW,317,0.0,2.0,81,0.00,,,0.00,Wunderground v.1.15,2013-04-26 05:57:00,
2013-04-26 02:02:00,31.9,26.7,30.39,NW,317,0.0,2.0,81,0.00,,,0.00,Wunderground v.1.15,2013-04-26 06:02:00,
2013-04-26 02:08:00,31.8,26.6,30.39,NW,317,0.0,2.0,81,0.00,,,0.00,Wunderground v.1.15,2013-04-26 06:08:00,
2013-04-26 02:13:00,31.6,26.7,30.39,NW,317,0.0,2.0,82,0.00,,,0.00,Wunderground v.1.15,2013-04-26 06:13:00,
2013-04-26 02:18:00,31.5,26.6,30.38,NW,317,0.0,2.0,82,0.00,,,0.00,Wunderground v.1.15,2013-04-26 06:18:00,
2013-04-26 02:24:00,31.4,26.5,30.38,NW,317,0.0,2.0,82,0.00,,,0.00,Wunderground v.1.15,2013-04-26 06:24:00,
2013-04-26 02:29:00,31.2,26.3,30.38,NW,317,0.0,2.0,82,0.00,,,0.00,Wunderground v.1.15,2013-04-26 06:29:00,
2013-04-26 02:34:00,31.2,26.3,30.38,NW,317,0.0,2.0,82,0.00,,,0.00,Wunderground v.1.15,2013-04-26 06:34:00,
2013-04-26 02:40:00,31.0,26.1,30.38,NW,317,0.0,2.0,82,0.00,,,0.00,Wunderground v.1.15,2013-04-26 06:40:00,
2013-04-26 02:46:00,31.0,26.4,30.38,NW,317,0.0,2.0,83,0.00,,,0.00,Wunderground v.1.15,2013-04-26 06:46:00,
2013-04-26 02:51:00,30.9,26.3,30.38,NW,317,0.0,2.0,83,0.00,,,0.00,Wunderground v.1.15,2013-04-26 06:51:00,
2013-04-26 02:56:00,30.9,26.3,30.38,NW,317,0.0,2.0,83,0.00,,,0.00,Wunderground v.1.15,2013-04-26 06:56:00,
2013-04-26 03:02:00,30.8,26.2,30.38,NW,317,0.0,2.0,83,0.00,,,0.00,Wunderground v.1.15,2013-04-26 07:02:00,
2013-04-26 03:07:00,30.7,26.1,30.38,NW,317,0.0,2.0,83,0.00,,,0.00,Wunderground v.1.15,2013-04-26 07:07:00,
2013-04-26 03:12:00,30.7,26.4,30.38,NW,317,0.0,2.0,84,0.00,,,0.00,Wunderground v.1.15,2013-04-26 07:12:00,
2013-04-26 03:17:00,30.6,26.3,30.37,NW,317,0.0,2.0,84,0.00,,,0.00,Wunderground v.1.15,2013-04-26 07:17:00,
2013-04-26 03:23:00,30.4,26.1,30.38,NW,317,0.0,2.0,84,0.00,,,0.00,Wunderground v.1.15,2013-04-26 07:23:00,
2013-04-26 03:28:00,30.5,26.2,30.37,NW,317,0.0,2.0,84,0.00,,,0.00,Wunderground v.1.15,2013-04-26 07:28:00,
2013-04-26 03:33:00,30.4,26.1,30.37,NW,317,0.0,2.0,84,0.00,,,0.00,Wunderground v.1.15,2013-04-26 07:33:00,
2013-04-26 03:38:00,30.4,26.4,30.37,NW,317,0.0,2.0,85,0.00,,,0.00,Wunderground v.1.15,2013-04-26 07:38:00,
2013-04-26 03:44:00,30.3,26.3,30.37,NW,317,0.0,2.0,85,0.00,,,0.00,Wunderground v.1.15,2013-04-26 07:44:00,
2013-04-26 03:49:00,30.3,26.3,30.38,NW,317,0.0,2.0,85,0.00,,,0.00,Wunderground v.1.15,2013-04-26 07:49:00,
2013-04-26 03:54:00,30.2,26.5,30.38,NW,317,0.0,2.0,86,0.00,,,0.00,Wunderground v.1.15,2013-04-26 07:54:00,
2013-04-26 03:59:00,30.1,26.4,30.38,NW,317,0.0,2.0,86,0.00,,,0.00,Wunderground v.1.15,2013-04-26 07:59:00,
2013-04-26 04:05:00,29.9,26.2,30.39,NW,317,0.0,2.0,86,0.00,,,0.00,Wunderground v.1.15,2013-04-26 08:05:00,
2013-04-26 04:10:00,29.9,26.2,30.38,NW,317,0.0,2.0,86,0.00,,,0.00,Wunderground v.1.15,2013-04-26 08:10:00,
2013-04-26 04:15:00,29.8,26.1,30.39,NW,317,0.0,2.0,86,0.00,,,0.00,Wunderground v.1.15,2013-04-26 08:15:00,
2013-04-26 04:21:00,29.6,25.9,30.39,NW,317,0.0,2.0,86,0.00,,,0.00,Wunderground v.1.15,2013-04-26 08:21:00,
2013-04-26 04:26:00,29.5,25.8,30.39,NW,317,0.0,2.0,86,0.00,,,0.00,Wunderground v.1.15,2013-04-26 08:26:00,
2013-04-26 04:31:00,29.5,26.1,30.39,NW,317,0.0,2.0,87,0.00,,,0.00,Wunderground v.1.15,2013-04-26 08:31:00,
2013-04-26 04:36:00,29.6,26.2,30.39,NW,317,0.0,2.0,87,0.00,,,0.00,Wunderground v.1.15,2013-04-26 08:36:00,
2013-04-26 04:42:00,29.8,26.7,30.39,NW,317,0.0,2.0,88,0.00,,,0.00,Wunderground v.1.15,2013-04-26 08:42:00,
2013-04-26 04:47:00,29.8,26.7,30.40,NW,317,0.0,2.0,88,0.00,,,0.00,Wunderground v.1.15,2013-04-26 08:47:00,
2013-04-26 04:52:00,29.9,26.8,30.40,NW,317,0.0,2.0,88,0.00,,,0.00,Wunderground v.1.15,2013-04-26 08:52:00,
2013-04-26 04:57:00,29.8,26.7,30.40,NW,317,0.0,2.0,88,0.00,,,0.00,Wunderground v.1.15,2013-04-26 08:57:00,
2013-04-26 05:03:00,29.7,26.6,30.40,NW,317,0.0,2.0,88,0.00,,,0.00,Wunderground v.1.15,2013-04-26 09:03:00,
2013-04-26 05:08:00,29.6,26.5,30.40,NW,317,0.0,2.0,88,0.00,,,0.00,Wunderground v.1.15,2013-04-26 09:08:00,
2013-04-26 05:14:00,29.6,26.8,30.40,NW,317,0.0,2.0,89,0.00,,,0.00,Wunderground v.1.15,2013-04-26 09:14:00,
2013-04-26 05:20:00,29.6,26.8,30.40,NW,317,0.0,2.0,89,0.00,,,0.00,Wunderground v.1.15,2013-04-26 09:20:00,
2013-04-26 05:25:00,29.7,26.9,30.40,NW,317,0.0,2.0,89,0.00,,,0.00,Wunderground v.1.15,2013-04-26 09:25:00,
2013-04-26 05:30:00,29.9,27.3,30.41,NW,317,0.0,2.0,90,0.00,,,0.00,Wunderground v.1.15,2013-04-26 09:30:00,
2013-04-26 05:36:00,29.9,27.3,30.41,NW,317,0.0,2.0,90,0.00,,,0.00,Wunderground v.1.15,2013-04-26 09:36:00,
2013-04-26 05:42:00,29.9,27.3,30.41,NW,317,0.0,2.0,90,0.00,,,0.00,Wunderground v.1.15,2013-04-26 09:42:00,
2013-04-26 05:47:00,29.9,27.3,30.41,NW,324,0.0,2.0,90,0.00,,,0.00,Wunderground v.1.15,2013-04-26 09:47:00,
2013-04-26 05:52:00,29.9,27.3,30.41,NW,324,0.0,2.0,90,0.00,,,0.00,Wunderground v.1.15,2013-04-26 09:52:00,
2013-04-26 05:58:00,29.9,27.3,30.41,NW,324,0.0,2.0,90,0.00,,,0.00,Wunderground v.1.15,2013-04-26 09:58:00,
2013-04-26 06:04:00,29.9,27.3,30.41,NW,324,0.0,2.0,90,0.00,,,0.00,Wunderground v.1.15,2013-04-26 10:04:00,
2013-04-26 06:09:00,30.0,27.4,30.41,NW,324,0.0,2.0,90,0.00,,,0.00,Wunderground v.1.15,2013-04-26 10:09:00,
2013-04-26 06:14:00,30.1,27.5,30.42,NW,324,0.0,2.0,90,0.00,,,0.00,Wunderground v.1.15,2013-04-26 10:14:00,
2013-04-26 06:19:00,30.1,27.8,30.42,NW,324,0.0,2.0,91,0.00,,,0.00,Wunderground v.1.15,2013-04-26 10:19:00,
2013-04-26 06:25:00,30.1,27.8,30.42,NW,324,0.0,2.0,91,0.00,,,0.00,Wunderground v.1.15,2013-04-26 10:25:00,
2013-04-26 06:30:00,30.1,27.8,30.42,NW,324,0.0,2.0,91,0.00,,,0.00,Wunderground v.1.15,2013-04-26 10:30:00,
2013-04-26 06:35:00,30.0,27.7,30.43,NW,324,0.0,2.0,91,0.00,,,0.00,Wunderground v.1.15,2013-04-26 10:35:00,
2013-04-26 06:40:00,30.0,27.7,30.43,NW,324,0.0,2.0,91,0.00,,,0.00,Wunderground v.1.15,2013-04-26 10:40:00,
2013-04-26 06:46:00,29.9,27.6,30.43,NW,324,0.0,2.0,91,0.00,,,0.00,Wunderground v.1.15,2013-04-26 10:46:00,
2013-04-26 06:51:00,29.9,27.6,30.43,NW,324,0.0,2.0,91,0.00,,,0.00,Wunderground v.1.15,2013-04-26 10:51:00,
2013-04-26 06:56:00,30.0,27.7,30.43,NW,324,0.0,2.0,91,0.00,,,0.00,Wunderground v.1.15,2013-04-26 10:56:00,
2013-04-26 07:01:00,30.1,27.8,30.43,NW,324,0.0,2.0,91,0.00,,,0.00,Wunderground v.1.15,2013-04-26 11:01:00,
2013-04-26 07:07:00,30.2,27.9,30.43,NNW,345,0.0,2.0,91,0.00,,,0.00,Wunderground v.1.15,2013-04-26 11:07:00,
2013-04-26 07:12:00,30.5,28.2,30.43,NNE,29,1.0,2.0,91,0.00,,,0.00,Wunderground v.1.15,2013-04-26 11:12:00,
2013-04-26 07:17:00,30.7,28.7,30.44,NNE,30,1.0,2.0,92,0.00,,,0.00,Wunderground v.1.15,2013-04-26 11:17:00,
2013-04-26 07:22:00,31.0,28.9,30.44,NNE,32,0.0,2.0,92,0.00,,,0.00,Wunderground v.1.15,2013-04-26 11:22:00,
2013-04-26 07:28:00,31.3,29.2,30.45,NNE,32,0.0,2.0,92,0.00,,,0.00,Wunderground v.1.15,2013-04-26 11:28:00,
2013-04-26 07:33:00,31.7,29.6,30.45,NNE,32,0.0,2.0,92,0.00,,,0.00,Wunderground v.1.15,2013-04-26 11:33:00,
2013-04-26 07:38:00,32.3,30.2,30.45,NE,49,1.0,3.0,92,0.00,,,0.00,Wunderground v.1.15,2013-04-26 11:38:00,
2013-04-26 07:44:00,33.4,31.6,30.45,NE,55,1.0,2.0,93,0.00,,,0.00,Wunderground v.1.15,2013-04-26 11:44:00,
2013-04-26 07:50:00,34.4,32.3,30.45,ENE,70,1.0,1.0,92,0.00,,,0.00,Wunderground v.1.15,2013-04-26 11:50:00,
2013-04-26 07:55:00,36.0,33.9,30.45,ENE,68,2.0,3.0,92,0.00,,,0.00,Wunderground v.1.15,2013-04-26 11:55:00,
2013-04-26 08:00:00,37.3,34.6,30.45,ENE,74,1.0,1.0,90,0.00,,,0.00,Wunderground v.1.15,2013-04-26 12:00:00,
2013-04-26 08:06:00,38.6,34.8,30.45,ENE,74,0.0,2.0,86,0.00,,,0.00,Wunderground v.1.15,2013-04-26 12:06:00,
2013-04-26 08:11:00,39.6,34.9,30.45,ENE,74,0.0,2.0,83,0.00,,,0.00,Wunderground v.1.15,2013-04-26 12:11:00,
2013-04-26 08:16:00,41.4,35.7,30.45,ENE,76,0.0,2.0,80,0.00,,,0.00,Wunderground v.1.15,2013-04-26 12:16:00,
2013-04-26 08:21:00,42.7,36.0,30.45,ENE,68,1.0,2.0,77,0.00,,,0.00,Wunderground v.1.15,2013-04-26 12:21:00,
2013-04-26 08:27:00,44.1,36.3,30.46,ENE,70,1.0,4.0,74,0.00,,,0.00,Wunderground v.1.15,2013-04-26 12:27:00,
2013-04-26 08:32:00,45.0,36.2,30.46,NE,51,1.0,3.0,71,0.00,,,0.00,Wunderground v.1.15,2013-04-26 12:32:00,
2013-04-26 08:37:00,45.8,36.2,30.46,NE,55,1.0,3.0,69,0.00,,,0.00,Wunderground v.1.15,2013-04-26 12:37:00,
2013-04-26 08:42:00,46.6,37.0,30.46,ENE,62,0.0,2.0,69,0.00,,,0.00,Wunderground v.1.15,2013-04-26 12:42:00,
2013-04-26 08:48:00,47.0,36.2,30.46,East,98,0.0,4.0,66,0.00,,,0.00,Wunderground v.1.15,2013-04-26 12:48:00,
2013-04-26 08:53:00,46.9,35.7,30.46,ESE,108,1.0,4.0,65,0.00,,,0.00,Wunderground v.1.15,2013-04-26 12:53:00,
2013-04-26 08:58:00,46.8,36.0,30.46,ENE,69,2.0,4.0,66,0.00,,,0.00,Wunderground v.1.15,2013-04-26 12:58:00,
2013-04-26 09:03:00,47.1,36.3,30.46,East,88,2.0,5.0,66,0.00,,,0.00,Wunderground v.1.15,2013-04-26 13:03:00,
2013-04-26 09:09:00,47.2,35.6,30.47,ENE,78,2.0,5.0,64,0.00,,,0.00,Wunderground v.1.15,2013-04-26 13:09:00,
2013-04-26 09:14:00,47.5,36.3,30.47,ENE,76,2.0,5.0,65,0.00,,,0.00,Wunderground v.1.15,2013-04-26 13:14:00,
2013-04-26 09:19:00,47.9,36.3,30.47,ENE,66,2.0,5.0,64,0.00,,,0.00,Wunderground v.1.15,2013-04-26 13:19:00,
2013-04-26 09:25:00,48.1,36.1,30.47,ESE,105,1.0,3.0,63,0.00,,,0.00,Wunderground v.1.15,2013-04-26 13:25:00,
2013-04-26 09:30:00,47.9,35.5,30.48,East,88,2.0,2.0,62,0.00,,,0.00,Wunderground v.1.15,2013-04-26 13:30:00,
2013-04-26 09:35:00,48.3,35.9,30.47,ESE,103,2.0,4.0,62,0.00,,,0.00,Wunderground v.1.15,2013-04-26 13:35:00,
2013-04-26 09:40:00,48.9,36.4,30.46,ENE,76,1.0,1.0,62,0.00,,,0.00,Wunderground v.1.15,2013-04-26 13:40:00,
2013-04-26 09:46:00,49.5,36.6,30.46,ENE,65,2.0,5.0,61,0.00,,,0.00,Wunderground v.1.15,2013-04-26 13:46:00,
2013-04-26 09:51:00,49.6,37.1,30.46,NE,51,2.0,2.0,62,0.00,,,0.00,Wunderground v.1.15,2013-04-26 13:51:00,
2013-04-26 09:56:00,50.1,37.2,30.47,East,80,1.0,2.0,61,0.00,,,0.00,Wunderground v.1.15,2013-04-26 13:56:00,
2013-04-26 10:01:00,50.5,37.1,30.47,ENE,66,1.0,2.0,60,0.00,,,0.00,Wunderground v.1.15,2013-04-26 14:01:00,
2013-04-26 10:07:00,50.4,36.6,30.47,East,87,2.0,3.0,59,0.00,,,0.00,Wunderground v.1.15,2013-04-26 14:07:00,
2013-04-26 10:12:00,50.4,36.2,30.47,ENE,63,2.0,2.0,58,0.00,,,0.00,Wunderground v.1.15,2013-04-26 14:12:00,
2013-04-26 10:17:00,50.8,37.0,30.47,NE,53,2.0,5.0,59,0.00,,,0.00,Wunderground v.1.15,2013-04-26 14:17:00,
2013-04-26 10:23:00,51.3,36.6,30.46,ESE,119,2.0,6.0,57,0.00,,,0.00,Wunderground v.1.15,2013-04-26 14:23:00,
2013-04-26 10:28:00,51.3,36.6,30.46,ESE,122,3.0,6.0,57,0.00,,,0.00,Wunderground v.1.15,2013-04-26 14:28:00,
2013-04-26 10:33:00,52.0,36.8,30.46,ESE,114,3.0,3.0,56,0.00,,,0.00,Wunderground v.1.15,2013-04-26 14:33:00,
2013-04-26 10:38:00,51.8,36.6,30.46,ENE,63,2.0,3.0,56,0.00,,,0.00,Wunderground v.1.15,2013-04-26 14:38:00,
2013-04-26 10:43:00,51.9,37.1,30.46,SE,139,1.0,3.0,57,0.00,,,0.00,Wunderground v.1.15,2013-04-26 14:43:00,
2013-04-26 10:49:00,52.2,37.0,30.46,ESE,109,1.0,3.0,56,0.00,,,0.00,Wunderground v.1.15,2013-04-26 14:49:00,
2013-04-26 10:54:00,52.4,36.7,30.46,SSE,161,1.0,5.0,55,0.00,,,0.00,Wunderground v.1.15,2013-04-26 14:54:00,
2013-04-26 10:59:00,52.4,35.3,30.47,SSE,163,1.0,5.0,52,0.00,,,0.00,Wunderground v.1.15,2013-04-26 14:59:00,
2013-04-26 11:05:00,52.3,37.1,30.47,SE,135,2.0,5.0,56,0.00,,,0.00,Wunderground v.1.15,2013-04-26 15:05:00,
2013-04-26 11:10:00,52.3,37.1,30.46,SE,146,2.0,2.0,56,0.00,,,0.00,Wunderground v.1.15,2013-04-26 15:10:00,
2013-04-26 11:15:00,52.9,38.1,30.46,East,94,2.0,7.0,57,0.00,,,0.00,Wunderground v.1.15,2013-04-26 15:15:00,
2013-04-26 11:20:00,53.0,36.8,30.46,SE,136,3.0,4.0,54,0.00,,,0.00,Wunderground v.1.15,2013-04-26 15:20:00,
2013-04-26 11:26:00,52.8,37.1,30.46,SSE,166,3.0,5.0,55,0.00,,,0.00,Wunderground v.1.15,2013-04-26 15:26:00,
2013-04-26 11:31:00,52.4,37.2,30.46,South,187,2.0,5.0,56,0.00,,,0.00,Wunderground v.1.15,2013-04-26 15:31:00,
2013-04-26 11:36:00,52.4,36.2,30.45,ESE,119,2.0,9.0,54,0.00,,,0.00,Wunderground v.1.15,2013-04-26 15:36:00,
2013-04-26 11:42:00,52.7,37.4,30.45,ESE,111,3.0,3.0,56,0.00,,,0.00,Wunderground v.1.15,2013-04-26 15:42:00,
2013-04-26 11:48:00,53.3,38.4,30.45,ESE,105,1.0,4.0,57,0.00,,,0.00,Wunderground v.1.15,2013-04-26 15:48:00,
2013-04-26 11:53:00,53.7,37.9,30.46,ESE,113,2.0,6.0,55,0.00,,,0.00,Wunderground v.1.15,2013-04-26 15:53:00,
2013-04-26 11:58:00,54.1,38.7,30.46,East,97,2.0,6.0,56,0.00,,,0.00,Wunderground v.1.15,2013-04-26 15:58:00,
2013-04-26 12:04:00,54.5,38.7,30.47,SE,128,1.0,4.0,55,0.00,,,0.00,Wunderground v.1.15,2013-04-26 16:04:00,
2013-04-26 12:10:00,54.2,37.9,30.46,ESE,109,2.0,3.0,54,0.00,,,0.00,Wunderground v.1.15,2013-04-26 16:10:00,
2013-04-26 12:15:00,54.0,36.8,30.46,ESE,111,2.0,3.0,52,0.00,,,0.00,Wunderground v.1.15,2013-04-26 16:15:00,
2013-04-26 12:20:00,54.4,37.6,30.46,East,95,1.0,2.0,53,0.00,,,0.00,Wunderground v.1.15,2013-04-26 16:20:00,
2013-04-26 12:26:00,54.5,36.7,30.46,NE,51,1.0,2.0,51,0.00,,,0.00,Wunderground v.1.15,2013-04-26 16:26:00,
2013-04-26 12:31:00,55.0,38.2,30.47,NE,48,0.0,2.0,53,0.00,,,0.00,Wunderground v.1.15,2013-04-26 16:31:00,
2013-04-26 12:36:00,55.2,36.9,30.47,ESE,116,1.0,6.0,50,0.00,,,0.00,Wunderground v.1.15,2013-04-26 16:36:00,
2013-04-26 12:41:00,54.9,37.1,30.45,ENE,72,1.0,2.0,51,0.00,,,0.00,Wunderground v.1.15,2013-04-26 16:41:00,
2013-04-26 12:46:00,55.0,37.2,30.45,ENE,71,0.0,2.0,51,0.00,,,0.00,Wunderground v.1.15,2013-04-26 16:46:00,
2013-04-26 12:52:00,55.4,37.1,30.46,ESE,112,1.0,6.0,50,0.00,,,0.00,Wunderground v.1.15,2013-04-26 16:52:00,
2013-04-26 12:57:00,55.3,34.9,30.46,ESE,116,1.0,6.0,46,0.00,,,0.00,Wunderground v.1.15,2013-04-26 16:57:00,
2013-04-26 13:02:00,55.7,37.8,30.46,East,100,0.0,5.0,51,0.00,,,0.00,Wunderground v.1.15,2013-04-26 17:02:00,
2013-04-26 13:08:00,55.9,38.0,30.45,ESE,111,1.0,9.0,51,0.00,,,0.00,Wunderground v.1.15,2013-04-26 17:08:00,
2013-04-26 13:13:00,55.9,39.5,30.45,NNE,28,2.0,4.0,54,0.00,,,0.00,Wunderground v.1.15,2013-04-26 17:13:00,
2013-04-26 13:19:00,55.9,39.5,30.45,ESE,123,2.0,7.0,54,0.00,,,0.00,Wunderground v.1.15,2013-04-26 17:19:00,
2013-04-26 13:24:00,56.5,39.1,30.45,SE,143,3.0,6.0,52,0.00,,,0.00,Wunderground v.1.15,2013-04-26 17:24:00,
2013-04-26 13:30:00,56.9,38.9,30.45,ESE,113,2.0,2.0,51,0.00,,,0.00,Wunderground v.1.15,2013-04-26 17:30:00,
2013-04-26 13:35:00,57.3,38.8,30.45,SE,125,1.0,2.0,50,0.00,,,0.00,Wunderground v.1.15,2013-04-26 17:35:00,
2013-04-26 13:40:00,57.2,38.7,30.45,SE,130,0.0,2.0,50,0.00,,,0.00,Wunderground v.1.15,2013-04-26 17:40:00,
2013-04-26 13:45:00,57.3,38.8,30.45,ENE,72,0.0,2.0,50,0.00,,,0.00,Wunderground v.1.15,2013-04-26 17:45:00,
2013-04-26 13:51:00,57.2,36.6,30.45,East,96,0.0,2.0,46,0.00,,,0.00,Wunderground v.1.15,2013-04-26 17:51:00,
2013-04-26 13:56:00,57.5,40.0,30.45,ENE,74,1.0,3.0,52,0.00,,,0.00,Wunderground v.1.15,2013-04-26 17:56:00,
2013-04-26 14:01:00,57.7,38.7,30.46,SE,146,1.0,5.0,49,0.00,,,0.00,Wunderground v.1.15,2013-04-26 18:01:00,
2013-04-26 14:07:00,57.8,38.8,30.45,ESE,121,2.0,5.0,49,0.00,,,0.00,Wunderground v.1.15,2013-04-26 18:07:00,
2013-04-26 14:13:00,57.5,37.4,30.45,South,177,1.0,2.0,47,0.00,,,0.00,Wunderground v.1.15,2013-04-26 18:13:00,
2013-04-26 14:18:00,57.5,36.9,30.45,West,265,1.0,3.0,46,0.00,,,0.00,Wunderground v.1.15,2013-04-26 18:18:00,
2013-04-26 14:23:00,57.7,38.1,30.45,NW,324,0.0,2.0,48,0.00,,,0.00,Wunderground v.1.15,2013-04-26 18:23:00,
2013-04-26 14:29:00,58.0,40.0,30.44,ESE,105,0.0,2.0,51,0.00,,,0.00,Wunderground v.1.15,2013-04-26 18:29:00,
2013-04-26 14:34:00,58.1,38.0,30.44,ESE,123,1.0,8.0,47,0.00,,,0.00,Wunderground v.1.15,2013-04-26 18:34:00,
2013-04-26 14:39:00,57.6,38.0,30.43,ESE,117,2.0,8.0,48,0.00,,,0.00,Wunderground v.1.15,2013-04-26 18:39:00,
2013-04-26 14:44:00,57.9,40.4,30.43,ESE,105,2.0,3.0,52,0.00,,,0.00,Wunderground v.1.15,2013-04-26 18:44:00,
2013-04-26 14:50:00,57.9,37.8,30.43,East,88,1.0,1.0,47,0.00,,,0.00,Wunderground v.1.15,2013-04-26 18:50:00,
2013-04-26 14:55:00,57.7,37.0,30.43,ENE,60,1.0,3.0,46,0.00,,,0.00,Wunderground v.1.15,2013-04-26 18:55:00,
2013-04-26 15:00:00,57.6,37.0,30.42,NE,56,1.0,1.0,46,0.00,,,0.00,Wunderground v.1.15,2013-04-26 19:00:00,
2013-04-26 15:05:00,58.0,39.5,30.42,SSE,165,0.0,3.0,50,0.00,,,0.00,Wunderground v.1.15,2013-04-26 19:05:00,
2013-04-26 15:11:00,58.7,39.0,30.42,SSE,155,1.0,3.0,48,0.00,,,0.00,Wunderground v.1.15,2013-04-26 19:11:00,
2013-04-26 15:16:00,58.8,38.6,30.42,South,191,2.0,4.0,47,0.00,,,0.00,Wunderground v.1.15,2013-04-26 19:16:00,
2013-04-26 15:22:00,58.2,35.8,30.41,South,188,2.0,4.0,43,0.00,,,0.00,Wunderground v.1.15,2013-04-26 19:22:00,
2013-04-26 15:27:00,58.3,38.7,30.41,SSE,148,1.0,4.0,48,0.00,,,0.00,Wunderground v.1.15,2013-04-26 19:27:00,
2013-04-26 15:32:00,59.0,38.8,30.41,East,80,2.0,4.0,47,0.00,,,0.00,Wunderground v.1.15,2013-04-26 19:32:00,
2013-04-26 15:37:00,59.4,38.6,30.40,ENE,59,2.0,4.0,46,0.00,,,0.00,Wunderground v.1.15,2013-04-26 19:37:00,
2013-04-26 15:42:00,59.5,37.0,30.40,ENE,65,1.0,2.0,43,0.00,,,0.00,Wunderground v.1.15,2013-04-26 19:42:00,
2013-04-26 15:48:00,59.6,37.6,30.39,ESE,121,1.0,4.0,44,0.00,,,0.00,Wunderground v.1.15,2013-04-26 19:48:00,
2013-04-26 15:53:00,59.8,39.0,30.39,NE,46,1.0,2.0,46,0.00,,,0.00,Wunderground v.1.15,2013-04-26 19:53:00,
2013-04-26 15:58:00,60.2,39.3,30.38,ESE,113,1.0,3.0,46,0.00,,,0.00,Wunderground v.1.15,2013-04-26 19:58:00,
2013-04-26 16:03:00,60.4,40.1,30.38,ESE,109,2.0,4.0,47,0.00,,,0.00,Wunderground v.1.15,2013-04-26 20:03:00,
2013-04-26 16:09:00,59.9,39.1,30.38,SE,130,3.0,4.0,46,0.00,,,0.00,Wunderground v.1.15,2013-04-26 20:09:00,
2013-04-26 16:14:00,59.7,37.7,30.38,SE,130,1.0,4.0,44,0.00,,,0.00,Wunderground v.1.15,2013-04-26 20:14:00,
2013-04-26 16:19:00,60.2,38.2,30.38,East,84,2.0,5.0,44,0.00,,,0.00,Wunderground v.1.15,2013-04-26 20:19:00,
2013-04-26 16:24:00,60.1,40.9,30.38,ESE,117,3.0,5.0,49,0.00,,,0.00,Wunderground v.1.15,2013-04-26 20:24:00,
2013-04-26 16:30:00,59.9,38.5,30.37,East,82,2.0,2.0,45,0.00,,,0.00,Wunderground v.1.15,2013-04-26 20:30:00,
2013-04-26 16:35:00,60.1,38.1,30.37,East,82,1.0,2.0,44,0.00,,,0.00,Wunderground v.1.15,2013-04-26 20:35:00,
2013-04-26 16:40:00,60.1,38.1,30.37,ENE,66,0.0,2.0,44,0.00,,,0.00,Wunderground v.1.15,2013-04-26 20:40:00,
2013-04-26 16:46:00,60.4,36.6,30.37,NE,53,1.0,4.0,41,0.00,,,0.00,Wunderground v.1.15,2013-04-26 20:46:00,
2013-04-26 16:51:00,60.2,37.6,30.36,ENE,73,2.0,6.0,43,0.00,,,0.00,Wunderground v.1.15,2013-04-26 20:51:00,
2013-04-26 16:56:00,60.4,38.9,30.36,NE,55,3.0,6.0,45,0.00,,,0.00,Wunderground v.1.15,2013-04-26 20:56:00,
2013-04-26 17:01:00,60.6,40.2,30.36,ENE,68,2.0,3.0,47,0.00,,,0.00,Wunderground v.1.15,2013-04-26 21:01:00,
2013-04-26 17:07:00,60.9,39.4,30.36,ENE,68,1.0,3.0,45,0.00,,,0.00,Wunderground v.1.15,2013-04-26 21:07:00,
2013-04-26 17:12:00,61.2,37.3,30.36,NNE,32,0.0,2.0,41,0.00,,,0.00,Wunderground v.1.15,2013-04-26 21:12:00,
2013-04-26 17:17:00,61.3,39.2,30.36,ENE,57,1.0,4.0,44,0.00,,,0.00,Wunderground v.1.15,2013-04-26 21:17:00,
2013-04-26 17:23:00,61.3,40.3,30.36,ENE,76,2.0,3.0,46,0.00,,,0.00,Wunderground v.1.15,2013-04-26 21:23:00,
2013-04-26 17:28:00,61.0,37.7,30.36,East,87,1.0,3.0,42,0.00,,,0.00,Wunderground v.1.15,2013-04-26 21:28:00,
2013-04-26 17:33:00,60.9,38.8,30.36,ENE,58,2.0,4.0,44,0.00,,,0.00,Wunderground v.1.15,2013-04-26 21:33:00,
2013-04-26 17:38:00,60.8,37.5,30.36,ENE,74,2.0,4.0,42,0.00,,,0.00,Wunderground v.1.15,2013-04-26 21:38:00,
2013-04-26 17:44:00,60.5,36.7,30.36,ENE,63,1.0,4.0,41,0.00,,,0.00,Wunderground v.1.15,2013-04-26 21:44:00,
2013-04-26 17:49:00,60.1,38.7,30.36,ESE,106,1.0,4.0,45,0.00,,,0.00,Wunderground v.1.15,2013-04-26 21:49:00,
2013-04-26 17:54:00,60.1,37.5,30.36,ENE,78,2.0,5.0,43,0.00,,,0.00,Wunderground v.1.15,2013-04-26 21:54:00,
2013-04-26 17:59:00,59.9,37.9,30.36,ENE,69,2.0,5.0,44,0.00,,,0.00,Wunderground v.1.15,2013-04-26 21:59:00,
2013-04-26 18:05:00,59.7,36.6,30.36,ENE,70,1.0,3.0,42,0.00,,,0.00,Wunderground v.1.15,2013-04-26 22:05:00,
2013-04-26 18:10:00,59.6,36.5,30.37,ENE,74,1.0,3.0,42,0.00,,,0.00,Wunderground v.1.15,2013-04-26 22:10:00,
2013-04-26 18:15:00,59.6,36.5,30.37,East,80,0.0,3.0,42,0.00,,,0.00,Wunderground v.1.15,2013-04-26 22:15:00,
2013-04-26 18:20:00,59.4,35.7,30.37,ENE,78,1.0,1.0,41,0.00,,,0.00,Wunderground v.1.15,2013-04-26 22:20:00,
2013-04-26 18:26:00,59.3,35.6,30.37,ENE,78,0.0,2.0,41,0.00,,,0.00,Wunderground v.1.15,2013-04-26 22:26:00,
2013-04-26 18:31:00,59.3,37.4,30.37,East,98,0.0,3.0,44,0.00,,,0.00,Wunderground v.1.15,2013-04-26 22:31:00,
2013-04-26 18:37:00,59.4,36.3,30.37,East,98,0.0,3.0,42,0.00,,,0.00,Wunderground v.1.15,2013-04-26 22:37:00,
2013-04-26 18:42:00,59.5,37.6,30.37,East,100,1.0,6.0,44,0.00,,,0.00,Wunderground v.1.15,2013-04-26 22:42:00,
2013-04-26 18:47:00,59.5,37.0,30.37,East,100,1.0,6.0,43,0.00,,,0.00,Wunderground v.1.15,2013-04-26 22:47:00,
2013-04-26 18:52:00,59.5,38.1,30.37,East,100,0.0,2.0,45,0.00,,,0.00,Wunderground v.1.15,2013-04-26 22:52:00,
2013-04-26 18:58:00,59.0,37.1,30.37,SE,140,1.0,3.0,44,0.00,,,0.00,Wunderground v.1.15,2013-04-26 22:58:00,
2013-04-26 19:03:00,59.0,35.9,30.37,SSE,148,2.0,2.0,42,0.00,,,0.00,Wunderground v.1.15,2013-04-26 23:03:00,
2013-04-26 19:08:00,58.6,35.0,30.37,SSE,148,1.0,2.0,41,0.00,,,0.00,Wunderground v.1.15,2013-04-26 23:08:00,
2013-04-26 19:14:00,58.4,36.6,30.37,SSE,150,1.0,3.0,44,0.00,,,0.00,Wunderground v.1.15,2013-04-26 23:14:00,
2013-04-26 19:19:00,58.2,35.8,30.36,SSE,150,1.0,3.0,43,0.00,,,0.00,Wunderground v.1.15,2013-04-26 23:19:00,
2013-04-26 19:24:00,58.0,37.9,30.36,SSE,150,0.0,2.0,47,0.00,,,0.00,Wunderground v.1.15,2013-04-26 23:24:00,
2013-04-26 19:29:00,57.9,35.5,30.37,SSE,150,1.0,4.0,43,0.00,,,0.00,Wunderground v.1.15,2013-04-26 23:29:00,
2013-04-26 19:35:00,57.8,36.6,30.36,SSE,150,1.0,2.0,45,0.00,,,0.00,Wunderground v.1.15,2013-04-26 23:35:00,
2013-04-26 19:40:00,57.7,36.5,30.36,SSE,150,0.0,2.0,45,0.00,,,0.00,Wunderground v.1.15,2013-04-26 23:40:00,
2013-04-26 19:45:00,57.5,35.7,30.36,SSE,150,0.0,2.0,44,0.00,,,0.00,Wunderground v.1.15,2013-04-26 23:45:00,
2013-04-26 19:50:00,57.3,36.1,30.36,SSE,150,0.0,2.0,45,0.00,,,0.00,Wunderground v.1.15,2013-04-26 23:50:00,
2013-04-26 20:06:00,56.1,37.2,30.37,SSE,150,0.0,2.0,49,0.00,,,0.00,Wunderground v.1.15,2013-04-27 00:06:00,
2013-04-26 20:11:00,55.6,36.7,30.37,SSE,150,0.0,2.0,49,0.00,,,0.00,Wunderground v.1.15,2013-04-27 00:11:00,
2013-04-26 20:16:00,55.1,36.8,30.36,SSE,150,0.0,2.0,50,0.00,,,0.00,Wunderground v.1.15,2013-04-27 00:16:00,
2013-04-26 20:22:00,54.5,36.2,30.36,SSE,150,0.0,2.0,50,0.00,,,0.00,Wunderground v.1.15,2013-04-27 00:22:00,
2013-04-26 20:27:00,54.1,38.3,30.36,SSE,150,0.0,2.0,55,0.00,,,0.00,Wunderground v.1.15,2013-04-27 00:27:00,
2013-04-26 20:32:00,53.7,38.4,30.36,SSE,150,0.0,2.0,56,0.00,,,0.00,Wunderground v.1.15,2013-04-27 00:32:00,
2013-04-26 20:37:00,53.1,38.3,30.36,SSE,150,0.0,2.0,57,0.00,,,0.00,Wunderground v.1.15,2013-04-27 00:37:00,
2013-04-26 20:43:00,52.4,38.0,30.36,SSE,150,0.0,2.0,58,0.00,,,0.00,Wunderground v.1.15,2013-04-27 00:43:00,
2013-04-26 20:48:00,51.7,37.4,30.36,SSE,150,0.0,2.0,58,0.00,,,0.00,Wunderground v.1.15,2013-04-27 00:48:00,
2013-04-26 20:53:00,50.9,37.1,30.36,SSE,150,0.0,2.0,59,0.00,,,0.00,Wunderground v.1.15,2013-04-27 00:53:00,
2013-04-26 20:59:00,50.3,36.9,30.36,SSE,150,0.0,2.0,60,0.00,,,0.00,Wunderground v.1.15,2013-04-27 00:59:00,
2013-04-26 21:04:00,49.8,37.3,30.36,SSE,150,0.0,2.0,62,0.00,,,0.00,Wunderground v.1.15,2013-04-27 01:04:00,
2013-04-26 21:09:00,49.6,38.3,30.36,SSE,150,0.0,2.0,65,0.00,,,0.00,Wunderground v.1.15,2013-04-27 01:09:00,
2013-04-26 21:14:00,49.3,38.4,30.37,SSE,150,0.0,2.0,66,0.00,,,0.00,Wunderground v.1.15,2013-04-27 01:14:00,
2013-04-26 21:19:00,48.9,38.0,30.37,SSE,150,0.0,2.0,66,0.00,,,0.00,Wunderground v.1.15,2013-04-27 01:19:00,
2013-04-26 21:25:00,48.3,37.5,30.37,SSE,150,0.0,2.0,66,0.00,,,0.00,Wunderground v.1.15,2013-04-27 01:25:00,
2013-04-26 21:30:00,47.7,36.9,30.37,SSE,150,0.0,2.0,66,0.00,,,0.00,Wunderground v.1.15,2013-04-27 01:30:00,
2013-04-26 21:35:00,47.3,36.9,30.37,SSE,150,0.0,2.0,67,0.00,,,0.00,Wunderground v.1.15,2013-04-27 01:35:00,
2013-04-26 21:41:00,46.9,36.9,30.37,SSE,150,0.0,2.0,68,0.00,,,0.00,Wunderground v.1.15,2013-04-27 01:41:00,
2013-04-26 21:46:00,46.6,36.6,30.37,SSE,150,0.0,2.0,68,0.00,,,0.00,Wunderground v.1.15,2013-04-27 01:46:00,
2013-04-26 21:51:00,46.3,36.3,30.37,SSE,150,0.0,2.0,68,0.00,,,0.00,Wunderground v.1.15,2013-04-27 01:51:00,
2013-04-26 21:56:00,45.9,35.9,30.37,SSE,150,0.0,2.0,68,0.00,,,0.00,Wunderground v.1.15,2013-04-27 01:56:00,
2013-04-26 22:02:00,45.5,36.3,30.37,SSE,150,0.0,2.0,70,0.00,,,0.00,Wunderground v.1.15,2013-04-27 02:02:00,
2013-04-26 22:07:00,45.2,36.4,30.37,SSE,150,0.0,2.0,71,0.00,,,0.00,Wunderground v.1.15,2013-04-27 02:07:00,
2013-04-26 22:12:00,45.0,36.2,30.37,SSE,150,0.0,2.0,71,0.00,,,0.00,Wunderground v.1.15,2013-04-27 02:12:00,
2013-04-26 22:17:00,44.6,36.1,30.37,SSE,150,0.0,2.0,72,0.00,,,0.00,Wunderground v.1.15,2013-04-27 02:17:00,
2013-04-26 22:22:00,44.3,36.2,30.37,SSE,150,0.0,3.0,73,0.00,,,0.00,Wunderground v.1.15,2013-04-27 02:22:00,
2013-04-26 22:28:00,44.0,36.2,30.37,SSE,150,1.0,3.0,74,0.00,,,0.00,Wunderground v.1.15,2013-04-27 02:28:00,
2013-04-26 22:33:00,43.8,36.0,30.37,SSE,150,0.0,2.0,74,0.00,,,0.00,Wunderground v.1.15,2013-04-27 02:33:00,
2013-04-26 22:38:00,43.5,35.8,30.37,SSE,150,0.0,2.0,74,0.00,,,0.00,Wunderground v.1.15,2013-04-27 02:38:00,
2013-04-26 22:43:00,43.2,35.5,30.37,SSE,150,0.0,2.0,74,0.00,,,0.00,Wunderground v.1.15,2013-04-27 02:43:00,
2013-04-26 22:49:00,42.9,35.5,30.37,SSE,150,0.0,2.0,75,0.00,,,0.00,Wunderground v.1.15,2013-04-27 02:49:00,
2013-04-26 22:54:00,42.7,35.3,30.37,SSE,150,0.0,2.0,75,0.00,,,0.00,Wunderground v.1.15,2013-04-27 02:54:00,
2013-04-26 22:59:00,42.4,35.4,30.37,SSE,150,0.0,2.0,76,0.00,,,0.00,Wunderground v.1.15,2013-04-27 02:59:00,
2013-04-26 23:04:00,42.2,35.2,30.37,SSE,150,0.0,2.0,76,0.00,,,0.00,Wunderground v.1.15,2013-04-27 03:04:00,
2013-04-26 23:09:00,42.0,35.3,30.37,SSE,150,0.0,2.0,77,0.00,,,0.00,Wunderground v.1.15,2013-04-27 03:09:00,
2013-04-26 23:15:00,42.0,36.0,30.37,SSE,150,0.0,2.0,79,0.00,,,0.00,Wunderground v.1.15,2013-04-27 03:15:00,
2013-04-26 23:20:00,42.0,36.0,30.37,SSE,150,0.0,2.0,79,0.00,,,0.00,Wunderground v.1.15,2013-04-27 03:20:00,
2013-04-26 23:26:00,42.0,36.3,30.36,SSE,150,0.0,2.0,80,0.00,,,0.00,Wunderground v.1.15,2013-04-27 03:26:00,
2013-04-26 23:31:00,41.9,36.2,30.36,SSE,150,0.0,2.0,80,0.00,,,0.00,Wunderground v.1.15,2013-04-27 03:31:00,
2013-04-26 23:36:00,41.8,36.1,30.36,SSE,150,0.0,2.0,80,0.00,,,0.00,Wunderground v.1.15,2013-04-27 03:36:00,
2013-04-26 23:41:00,41.8,36.7,30.36,SSE,150,0.0,2.0,82,0.00,,,0.00,Wunderground v.1.15,2013-04-27 03:41:00,
2013-04-26 23:47:00,41.7,36.6,30.36,SSE,150,0.0,2.0,82,0.00,,,0.00,Wunderground v.1.15,2013-04-27 03:47:00,
2013-04-26 23:52:00,41.6,36.5,30.35,SSE,150,0.0,2.0,82,0.00,,,0.00,Wunderground v.1.15,2013-04-27 03:52:00,
2013-04-26 23:57:00,41.5,36.7,30.35,SSE,150,0.0,2.0,83,0.00,,,0.00,Wunderground v.1.15,2013-04-27 03:57:00,